sensor_id;sensor_type;location;lat;lon;timestamp;noise_LAeq;noise_LA_min;noise_LA_max;noise_LA01;noise_LA95
66747;Laerm;53658;50.742;10.864;2023-03-16T00:01:19;53.04;51.66;54.04;;
66747;Laerm;53658;50.742;10.864;2023-03-16T00:03:47;53.19;52.21;54.19;;
66747;Laerm;53658;50.742;10.864;2023-03-16T00:06:12;53.11;51.99;53.99;;
66747;Laerm;53658;50.742;10.864;2023-03-16T00:08:38;53.12;52.09;54.15;;
66747;Laerm;53658;50.742;10.864;2023-03-16T00:11:04;53.19;52.25;54.08;;
66747;Laerm;53658;50.742;10.864;2023-03-16T00:13:30;53.21;52.06;54.17;;
66747;Laerm;53658;50.742;10.864;2023-03-16T00:15:59;53.12;52.10;54.13;;
66747;Laerm;53658;50.742;10.864;2023-03-16T00:18:27;53.21;52.00;54.07;;
66747;Laerm;53658;50.742;10.864;2023-03-16T00:20:56;53.25;51.91;54.08;;
66747;Laerm;53658;50.742;10.864;2023-03-16T00:23:23;53.41;52.23;54.26;;
66747;Laerm;53658;50.742;10.864;2023-03-16T00:25:53;53.41;52.45;54.40;;
66747;Laerm;53658;50.742;10.864;2023-03-16T00:28:20;53.40;52.37;54.38;;
66747;Laerm;53658;50.742;10.864;2023-03-16T00:30:46;53.39;52.25;54.29;;
66747;Laerm;53658;50.742;10.864;2023-03-16T00:33:14;53.43;52.44;54.25;;
66747;Laerm;53658;50.742;10.864;2023-03-16T00:35:40;53.51;52.25;54.55;;
66747;Laerm;53658;50.742;10.864;2023-03-16T00:38:19;53.59;52.63;54.57;;
66747;Laerm;53658;50.742;10.864;2023-03-16T00:40:45;53.58;52.61;54.51;;
66747;Laerm;53658;50.742;10.864;2023-03-16T00:43:12;53.54;52.48;54.46;;
66747;Laerm;53658;50.742;10.864;2023-03-16T00:45:43;53.53;52.41;54.58;;
66747;Laerm;53658;50.742;10.864;2023-03-16T00:48:10;53.59;52.61;54.45;;
66747;Laerm;53658;50.742;10.864;2023-03-16T00:50:37;53.68;52.67;54.49;;
66747;Laerm;53658;50.742;10.864;2023-03-16T00:53:02;53.70;52.53;54.53;;
66747;Laerm;53658;50.742;10.864;2023-03-16T00:55:28;53.74;52.56;54.68;;
66747;Laerm;53658;50.742;10.864;2023-03-16T00:57:54;53.76;52.64;54.79;;
66747;Laerm;53658;50.742;10.864;2023-03-16T01:00:20;53.76;52.81;54.64;;
66747;Laerm;53658;50.742;10.864;2023-03-16T01:02:47;53.73;52.74;54.61;;
66747;Laerm;53658;50.742;10.864;2023-03-16T01:05:13;53.78;52.81;54.77;;
66747;Laerm;53658;50.742;10.864;2023-03-16T01:07:40;53.81;52.33;54.69;;
66747;Laerm;53658;50.742;10.864;2023-03-16T01:10:08;53.81;52.71;54.91;;
66747;Laerm;53658;50.742;10.864;2023-03-16T01:12:34;53.73;52.74;54.56;;
66747;Laerm;53658;50.742;10.864;2023-03-16T01:15:00;53.83;52.73;54.72;;
66747;Laerm;53658;50.742;10.864;2023-03-16T01:17:26;53.84;52.78;54.81;;
66747;Laerm;53658;50.742;10.864;2023-03-16T01:19:53;53.84;52.76;54.71;;
66747;Laerm;53658;50.742;10.864;2023-03-16T01:22:19;53.85;52.84;54.72;;
66747;Laerm;53658;50.742;10.864;2023-03-16T01:24:46;53.81;52.69;54.76;;
66747;Laerm;53658;50.742;10.864;2023-03-16T01:27:13;53.85;52.85;54.77;;
66747;Laerm;53658;50.742;10.864;2023-03-16T01:29:40;53.95;52.91;54.90;;
66747;Laerm;53658;50.742;10.864;2023-03-16T01:32:09;53.96;52.92;54.82;;
66747;Laerm;53658;50.742;10.864;2023-03-16T01:34:35;53.96;53.01;54.95;;
66747;Laerm;53658;50.742;10.864;2023-03-16T01:37:02;53.95;52.75;54.77;;
66747;Laerm;53658;50.742;10.864;2023-03-16T01:39:42;53.94;52.96;54.87;;
66747;Laerm;53658;50.742;10.864;2023-03-16T01:42:09;53.91;52.75;54.87;;
66747;Laerm;53658;50.742;10.864;2023-03-16T01:44:55;53.93;52.92;54.82;;
66747;Laerm;53658;50.742;10.864;2023-03-16T01:47:27;53.98;52.76;54.90;;
66747;Laerm;53658;50.742;10.864;2023-03-16T01:49:55;54.01;52.31;54.84;;
66747;Laerm;53658;50.742;10.864;2023-03-16T01:52:31;54.03;53.01;54.90;;
66747;Laerm;53658;50.742;10.864;2023-03-16T01:55:03;54.01;52.83;55.02;;
66747;Laerm;53658;50.742;10.864;2023-03-16T01:57:34;54.12;52.68;54.91;;
66747;Laerm;53658;50.742;10.864;2023-03-16T02:00:06;54.11;53.10;54.97;;
66747;Laerm;53658;50.742;10.864;2023-03-16T02:02:43;54.18;53.14;55.08;;
66747;Laerm;53658;50.742;10.864;2023-03-16T02:05:38;54.19;52.91;55.15;;
66747;Laerm;53658;50.742;10.864;2023-03-16T02:08:09;54.22;53.23;55.17;;
66747;Laerm;53658;50.742;10.864;2023-03-16T02:10:38;54.24;53.06;55.07;;
66747;Laerm;53658;50.742;10.864;2023-03-16T02:13:05;54.24;53.06;55.33;;
66747;Laerm;53658;50.742;10.864;2023-03-16T02:15:31;54.27;53.12;55.31;;
66747;Laerm;53658;50.742;10.864;2023-03-16T02:17:57;54.23;53.35;55.11;;
66747;Laerm;53658;50.742;10.864;2023-03-16T02:20:50;54.25;53.19;55.21;;
66747;Laerm;53658;50.742;10.864;2023-03-16T02:23:20;54.26;53.31;55.27;;
66747;Laerm;53658;50.742;10.864;2023-03-16T02:26:02;54.25;53.21;55.16;;
66747;Laerm;53658;50.742;10.864;2023-03-16T02:31:20;54.24;53.29;55.48;;
66747;Laerm;53658;50.742;10.864;2023-03-16T02:33:49;54.25;53.18;55.21;;
66747;Laerm;53658;50.742;10.864;2023-03-16T02:36:19;54.20;53.06;55.47;;
66747;Laerm;53658;50.742;10.864;2023-03-16T02:38:46;54.17;53.19;55.20;;
66747;Laerm;53658;50.742;10.864;2023-03-16T02:41:16;54.15;52.95;55.06;;
66747;Laerm;53658;50.742;10.864;2023-03-16T02:43:52;54.14;53.16;54.95;;
66747;Laerm;53658;50.742;10.864;2023-03-16T02:46:27;54.20;53.14;55.13;;
66747;Laerm;53658;50.742;10.864;2023-03-16T02:49:04;54.20;53.15;55.02;;
66747;Laerm;53658;50.742;10.864;2023-03-16T02:51:32;54.18;53.14;55.09;;
66747;Laerm;53658;50.742;10.864;2023-03-16T02:53:58;54.17;53.11;54.96;;
66747;Laerm;53658;50.742;10.864;2023-03-16T02:56:25;54.13;53.23;54.97;;
66747;Laerm;53658;50.742;10.864;2023-03-16T02:58:51;54.08;53.10;54.97;;
66747;Laerm;53658;50.742;10.864;2023-03-16T03:01:19;54.18;53.26;55.07;;
66747;Laerm;53658;50.742;10.864;2023-03-16T03:03:45;54.19;53.26;55.32;;
66747;Laerm;53658;50.742;10.864;2023-03-16T03:06:10;54.15;53.15;55.02;;
66747;Laerm;53658;50.742;10.864;2023-03-16T03:08:37;54.13;53.25;55.09;;
66747;Laerm;53658;50.742;10.864;2023-03-16T03:11:02;54.16;53.22;55.11;;
66747;Laerm;53658;50.742;10.864;2023-03-16T03:13:28;54.17;53.21;55.09;;
66747;Laerm;53658;50.742;10.864;2023-03-16T03:15:54;54.13;52.91;54.93;;
66747;Laerm;53658;50.742;10.864;2023-03-16T03:18:23;54.13;53.06;55.00;;
66747;Laerm;53658;50.742;10.864;2023-03-16T03:20:50;54.09;53.08;54.91;;
66747;Laerm;53658;50.742;10.864;2023-03-16T03:23:16;54.09;53.20;55.00;;
66747;Laerm;53658;50.742;10.864;2023-03-16T03:25:42;54.13;53.11;55.05;;
66747;Laerm;53658;50.742;10.864;2023-03-16T03:28:08;54.15;53.04;55.06;;
66747;Laerm;53658;50.742;10.864;2023-03-16T03:30:35;54.09;53.17;54.90;;
66747;Laerm;53658;50.742;10.864;2023-03-16T03:33:02;54.01;52.90;54.97;;
66747;Laerm;53658;50.742;10.864;2023-03-16T03:35:28;53.95;52.96;54.85;;
66747;Laerm;53658;50.742;10.864;2023-03-16T03:37:54;54.03;52.95;54.85;;
66747;Laerm;53658;50.742;10.864;2023-03-16T03:40:20;54.07;53.02;55.09;;
66747;Laerm;53658;50.742;10.864;2023-03-16T03:42:51;54.09;53.06;55.03;;
66747;Laerm;53658;50.742;10.864;2023-03-16T03:45:17;54.04;52.97;54.85;;
66747;Laerm;53658;50.742;10.864;2023-03-16T03:47:43;53.93;53.01;54.71;;
66747;Laerm;53658;50.742;10.864;2023-03-16T03:50:14;53.92;52.91;54.77;;
66747;Laerm;53658;50.742;10.864;2023-03-16T03:53:03;53.82;52.84;54.85;;
66747;Laerm;53658;50.742;10.864;2023-03-16T03:55:33;53.85;52.81;54.84;;
66747;Laerm;53658;50.742;10.864;2023-03-16T03:58:00;53.88;52.94;54.89;;
66747;Laerm;53658;50.742;10.864;2023-03-16T04:00:26;53.72;52.74;54.65;;
66747;Laerm;53658;50.742;10.864;2023-03-16T04:02:52;53.68;52.68;54.53;;
66747;Laerm;53658;50.742;10.864;2023-03-16T04:05:28;53.69;52.74;54.49;;
66747;Laerm;53658;50.742;10.864;2023-03-16T04:07:54;53.61;52.71;54.49;;
66747;Laerm;53658;50.742;10.864;2023-03-16T04:10:23;53.50;52.40;54.53;;
66747;Laerm;53658;50.742;10.864;2023-03-16T04:12:50;53.51;52.42;54.47;;
66747;Laerm;53658;50.742;10.864;2023-03-16T04:15:16;53.52;52.44;54.43;;
66747;Laerm;53658;50.742;10.864;2023-03-16T04:18:03;53.33;52.38;54.35;;
66747;Laerm;53658;50.742;10.864;2023-03-16T04:20:29;53.52;52.50;54.48;;
66747;Laerm;53658;50.742;10.864;2023-03-16T04:22:55;53.50;52.52;54.44;;
66747;Laerm;53658;50.742;10.864;2023-03-16T04:25:24;53.33;52.38;54.13;;
66747;Laerm;53658;50.742;10.864;2023-03-16T04:27:56;53.28;52.21;54.19;;
66747;Laerm;53658;50.742;10.864;2023-03-16T04:30:25;53.24;52.22;54.29;;
66747;Laerm;53658;50.742;10.864;2023-03-16T04:32:57;53.29;52.20;54.25;;
66747;Laerm;53658;50.742;10.864;2023-03-16T04:35:23;53.15;52.08;54.24;;
66747;Laerm;53658;50.742;10.864;2023-03-16T04:37:53;53.19;52.19;54.15;;
66747;Laerm;53658;50.742;10.864;2023-03-16T04:40:23;53.12;52.12;53.93;;
66747;Laerm;53658;50.742;10.864;2023-03-16T04:42:59;53.02;52.01;54.03;;
66747;Laerm;53658;50.742;10.864;2023-03-16T04:45:25;52.86;51.89;53.84;;
66747;Laerm;53658;50.742;10.864;2023-03-16T04:47:54;52.84;51.93;53.74;;
66747;Laerm;53658;50.742;10.864;2023-03-16T04:50:21;52.79;51.64;53.71;;
66747;Laerm;53658;50.742;10.864;2023-03-16T04:52:51;52.74;51.54;53.67;;
66747;Laerm;53658;50.742;10.864;2023-03-16T04:55:17;52.92;51.87;53.82;;
66747;Laerm;53658;50.742;10.864;2023-03-16T04:57:43;53.06;51.93;54.01;;
66747;Laerm;53658;50.742;10.864;2023-03-16T05:00:09;53.12;52.09;54.02;;
66747;Laerm;53658;50.742;10.864;2023-03-16T05:02:43;53.05;52.07;54.11;;
66747;Laerm;53658;50.742;10.864;2023-03-16T05:05:09;52.95;51.86;53.92;;
66747;Laerm;53658;50.742;10.864;2023-03-16T05:07:40;52.82;51.62;53.79;;
66747;Laerm;53658;50.742;10.864;2023-03-16T05:10:13;52.79;51.70;53.97;;
66747;Laerm;53658;50.742;10.864;2023-03-16T05:12:39;52.72;51.77;53.70;;
66747;Laerm;53658;50.742;10.864;2023-03-16T05:15:08;52.58;51.54;53.51;;
66747;Laerm;53658;50.742;10.864;2023-03-16T05:17:41;52.58;51.60;53.57;;
66747;Laerm;53658;50.742;10.864;2023-03-16T05:20:13;52.54;51.49;53.43;;
66747;Laerm;53658;50.742;10.864;2023-03-16T05:22:45;52.55;51.59;53.55;;
66747;Laerm;53658;50.742;10.864;2023-03-16T05:25:24;52.43;51.52;53.39;;
66747;Laerm;53658;50.742;10.864;2023-03-16T05:27:53;52.17;50.98;53.08;;
66747;Laerm;53658;50.742;10.864;2023-03-16T05:30:28;52.30;51.23;53.27;;
66747;Laerm;53658;50.742;10.864;2023-03-16T05:32:57;52.48;51.47;53.28;;
66747;Laerm;53658;50.742;10.864;2023-03-16T05:35:24;52.34;51.26;53.30;;
66747;Laerm;53658;50.742;10.864;2023-03-16T05:37:52;52.28;51.26;53.05;;
66747;Laerm;53658;50.742;10.864;2023-03-16T05:40:20;52.49;51.44;53.44;;
66747;Laerm;53658;50.742;10.864;2023-03-16T05:42:56;52.67;51.66;53.64;;
66747;Laerm;53658;50.742;10.864;2023-03-16T05:45:26;52.68;51.56;53.50;;
66747;Laerm;53658;50.742;10.864;2023-03-16T05:48:06;52.63;51.56;53.55;;
66747;Laerm;53658;50.742;10.864;2023-03-16T05:50:36;52.88;51.59;53.84;;
66747;Laerm;53658;50.742;10.864;2023-03-16T05:53:02;52.90;51.77;53.84;;
66747;Laerm;53658;50.742;10.864;2023-03-16T05:55:29;52.93;51.82;53.84;;
66747;Laerm;53658;50.742;10.864;2023-03-16T05:57:59;53.06;51.95;53.93;;
66747;Laerm;53658;50.742;10.864;2023-03-16T06:00:25;53.23;52.23;54.16;;
66747;Laerm;53658;50.742;10.864;2023-03-16T06:03:04;53.46;52.50;54.40;;
66747;Laerm;53658;50.742;10.864;2023-03-16T06:05:33;53.43;52.22;54.39;;
66747;Laerm;53658;50.742;10.864;2023-03-16T06:07:59;53.52;52.32;54.51;;
66747;Laerm;53658;50.742;10.864;2023-03-16T06:10:25;53.80;52.86;54.76;;
66747;Laerm;53658;50.742;10.864;2023-03-16T06:12:52;53.87;52.95;54.68;;
66747;Laerm;53658;50.742;10.864;2023-03-16T06:15:20;53.98;52.89;54.97;;
66747;Laerm;53658;50.742;10.864;2023-03-16T06:17:49;54.04;53.02;54.91;;
66747;Laerm;53658;50.742;10.864;2023-03-16T06:20:16;54.14;52.98;55.12;;
66747;Laerm;53658;50.742;10.864;2023-03-16T06:22:44;54.17;53.11;55.07;;
66747;Laerm;53658;50.742;10.864;2023-03-16T06:25:12;54.19;53.27;55.22;;
66747;Laerm;53658;50.742;10.864;2023-03-16T06:27:40;54.24;52.91;55.11;;
66747;Laerm;53658;50.742;10.864;2023-03-16T06:30:12;54.23;53.07;55.22;;
66747;Laerm;53658;50.742;10.864;2023-03-16T06:32:38;54.24;53.11;55.17;;
66747;Laerm;53658;50.742;10.864;2023-03-16T06:35:08;54.24;53.19;55.18;;
66747;Laerm;53658;50.742;10.864;2023-03-16T06:37:36;54.23;53.24;55.23;;
66747;Laerm;53658;50.742;10.864;2023-03-16T06:40:15;54.23;53.15;55.18;;
66747;Laerm;53658;50.742;10.864;2023-03-16T06:42:41;54.20;53.18;55.27;;
66747;Laerm;53658;50.742;10.864;2023-03-16T06:45:10;54.19;53.01;55.09;;
66747;Laerm;53658;50.742;10.864;2023-03-16T06:47:36;54.16;53.16;55.16;;
66747;Laerm;53658;50.742;10.864;2023-03-16T06:50:03;54.14;52.96;55.14;;
66747;Laerm;53658;50.742;10.864;2023-03-16T06:52:29;54.05;53.08;55.00;;
66747;Laerm;53658;50.742;10.864;2023-03-16T06:54:57;53.92;51.53;55.04;;
66747;Laerm;53658;50.742;10.864;2023-03-16T06:57:24;53.85;52.85;54.71;;
66747;Laerm;53658;50.742;10.864;2023-03-16T06:59:50;53.76;52.86;54.68;;
66747;Laerm;53658;50.742;10.864;2023-03-16T07:02:16;53.68;52.63;54.59;;
66747;Laerm;53658;50.742;10.864;2023-03-16T07:04:42;53.59;52.48;54.46;;
66747;Laerm;53658;50.742;10.864;2023-03-16T07:07:09;53.38;52.44;54.22;;
66747;Laerm;53658;50.742;10.864;2023-03-16T07:09:37;53.07;50.83;53.96;;
66747;Laerm;53658;50.742;10.864;2023-03-16T07:12:03;52.94;51.82;53.86;;
66747;Laerm;53658;50.742;10.864;2023-03-16T07:14:30;52.67;51.51;53.66;;
66747;Laerm;53658;50.742;10.864;2023-03-16T07:17:16;52.51;51.52;53.55;;
66747;Laerm;53658;50.742;10.864;2023-03-16T07:19:42;51.98;50.44;53.12;;
66747;Laerm;53658;50.742;10.864;2023-03-16T07:22:08;49.81;47.52;51.84;;
66747;Laerm;53658;50.742;10.864;2023-03-16T07:24:37;47.85;45.20;49.63;;
66747;Laerm;53658;50.742;10.864;2023-03-16T07:27:03;44.57;41.38;46.89;;
66747;Laerm;53658;50.742;10.864;2023-03-16T07:29:50;39.43;35.94;49.28;;
66747;Laerm;53658;50.742;10.864;2023-03-16T07:32:19;38.56;35.36;55.60;;
66747;Laerm;53658;50.742;10.864;2023-03-16T07:34:47;38.20;34.31;40.89;;
66747;Laerm;53658;50.742;10.864;2023-03-16T07:37:13;38.11;33.90;43.49;;
66747;Laerm;53658;50.742;10.864;2023-03-16T07:39:41;38.22;33.44;43.34;;
66747;Laerm;53658;50.742;10.864;2023-03-16T07:42:14;40.01;33.90;60.64;;
66747;Laerm;53658;50.742;10.864;2023-03-16T07:45:08;38.21;33.90;41.22;;
66747;Laerm;53658;50.742;10.864;2023-03-16T07:47:36;38.41;34.69;49.12;;
66747;Laerm;53658;50.742;10.864;2023-03-16T07:50:10;39.74;32.35;48.26;;
66747;Laerm;53658;50.742;10.864;2023-03-16T07:52:40;39.21;34.69;66.57;;
66747;Laerm;53658;50.742;10.864;2023-03-16T07:55:07;38.82;34.31;61.90;;
66747;Laerm;53658;50.742;10.864;2023-03-16T07:57:34;48.03;34.69;83.50;;
66747;Laerm;53658;50.742;10.864;2023-03-16T08:00:00;48.60;32.35;84.13;;
66747;Laerm;53658;50.742;10.864;2023-03-16T08:02:39;38.73;34.69;45.23;;
66747;Laerm;53658;50.742;10.864;2023-03-16T08:05:07;38.59;33.44;42.03;;
66747;Laerm;53658;50.742;10.864;2023-03-16T08:07:40;38.29;33.90;42.29;;
66747;Laerm;53658;50.742;10.864;2023-03-16T08:10:17;38.09;33.90;41.96;;
66747;Laerm;53658;50.742;10.864;2023-03-16T08:12:50;39.20;35.36;54.92;;
66747;Laerm;53658;50.742;10.864;2023-03-16T08:15:18;39.30;36.20;42.29;;
66747;Laerm;53658;50.742;10.864;2023-03-16T08:17:45;39.94;37.12;45.72;;
66747;Laerm;53658;50.742;10.864;2023-03-16T08:20:16;40.15;37.32;41.82;;
66747;Laerm;53658;50.742;10.864;2023-03-16T08:22:44;40.18;37.88;42.03;;
66747;Laerm;53658;50.742;10.864;2023-03-16T08:25:13;40.15;37.70;42.03;;
66747;Laerm;53658;50.742;10.864;2023-03-16T08:28:07;40.13;37.88;42.35;;
66747;Laerm;53658;50.742;10.864;2023-03-16T08:30:35;39.98;37.52;42.22;;
66747;Laerm;53658;50.742;10.864;2023-03-16T08:33:19;39.90;37.32;42.29;;
66747;Laerm;53658;50.742;10.864;2023-03-16T08:35:49;39.84;36.69;41.75;;
66747;Laerm;53658;50.742;10.864;2023-03-16T08:38:15;39.82;36.91;41.75;;
66747;Laerm;53658;50.742;10.864;2023-03-16T08:40:42;39.63;36.69;44.51;;
66747;Laerm;53658;50.742;10.864;2023-03-16T08:43:33;39.58;36.45;41.68;;
66747;Laerm;53658;50.742;10.864;2023-03-16T08:45:59;39.53;36.20;43.49;;
66747;Laerm;53658;50.742;10.864;2023-03-16T08:48:36;39.38;36.20;44.80;;
66747;Laerm;53658;50.742;10.864;2023-03-16T08:51:04;39.32;35.36;43.19;;
66747;Laerm;53658;50.742;10.864;2023-03-16T08:53:34;39.25;36.20;43.14;;
66747;Laerm;53658;50.742;10.864;2023-03-16T08:56:20;39.30;35.94;44.15;;
66747;Laerm;53658;50.742;10.864;2023-03-16T08:58:46;39.74;35.36;48.31;;
66747;Laerm;53658;50.742;10.864;2023-03-16T09:01:14;39.78;35.59;52.61;;
66747;Laerm;53658;50.742;10.864;2023-03-16T09:03:42;39.28;35.04;50.68;;
66747;Laerm;53658;50.742;10.864;2023-03-16T09:06:13;39.29;35.36;46.95;;
66747;Laerm;53658;50.742;10.864;2023-03-16T09:08:40;39.20;35.36;46.45;;
66747;Laerm;53658;50.742;10.864;2023-03-16T09:11:12;38.97;35.66;42.29;;
66747;Laerm;53658;50.742;10.864;2023-03-16T09:13:40;39.02;35.04;43.86;;
66747;Laerm;53658;50.742;10.864;2023-03-16T09:16:11;38.82;35.66;41.06;;
66747;Laerm;53658;50.742;10.864;2023-03-16T09:18:37;38.80;34.69;43.29;;
66747;Laerm;53658;50.742;10.864;2023-03-16T09:21:07;38.52;33.90;43.29;;
66747;Laerm;53658;50.742;10.864;2023-03-16T09:23:34;39.22;34.31;48.60;;
66747;Laerm;53658;50.742;10.864;2023-03-16T09:26:04;38.86;34.31;48.42;;
66747;Laerm;53658;50.742;10.864;2023-03-16T09:28:33;38.38;34.69;41.68;;
66747;Laerm;53658;50.742;10.864;2023-03-16T09:31:01;38.62;34.31;44.07;;
66747;Laerm;53658;50.742;10.864;2023-03-16T09:33:28;38.80;33.90;48.02;;
66747;Laerm;53658;50.742;10.864;2023-03-16T09:35:55;38.62;34.31;45.30;;
66747;Laerm;53658;50.742;10.864;2023-03-16T09:38:22;38.47;33.90;44.54;;
66747;Laerm;53658;50.742;10.864;2023-03-16T09:41:00;38.38;33.44;41.30;;
66747;Laerm;53658;50.742;10.864;2023-03-16T09:43:43;40.20;34.31;57.69;;
66747;Laerm;53658;50.742;10.864;2023-03-16T09:48:47;38.31;33.90;40.71;;
66747;Laerm;53658;50.742;10.864;2023-03-16T09:51:50;38.69;34.31;48.81;;
66747;Laerm;53658;50.742;10.864;2023-03-16T09:56:53;38.14;33.97;42.82;;
66747;Laerm;53658;50.742;10.864;2023-03-16T09:59:20;38.25;33.44;42.47;;
66747;Laerm;53658;50.742;10.864;2023-03-16T10:02:23;38.13;33.90;43.04;;
66747;Laerm;53658;50.742;10.864;2023-03-16T10:05:19;38.08;33.90;41.61;;
66747;Laerm;53658;50.742;10.864;2023-03-16T10:13:56;38.01;32.93;40.88;;
66747;Laerm;53658;50.742;10.864;2023-03-16T10:17:12;38.00;31.68;44.58;;
66747;Laerm;53658;50.742;10.864;2023-03-16T10:22:18;37.93;33.44;41.30;;
66747;Laerm;53658;50.742;10.864;2023-03-16T10:27:50;37.94;32.93;42.22;;
66747;Laerm;53658;50.742;10.864;2023-03-16T10:30:32;37.99;33.44;41.82;;
66747;Laerm;53658;50.742;10.864;2023-03-16T10:33:20;37.87;33.44;40.98;;
66747;Laerm;53658;50.742;10.864;2023-03-16T10:36:04;37.89;33.44;40.80;;
66747;Laerm;53658;50.742;10.864;2023-03-16T10:39:07;38.43;33.90;48.18;;
66747;Laerm;53658;50.742;10.864;2023-03-16T10:41:36;38.27;32.35;44.47;;
66747;Laerm;53658;50.742;10.864;2023-03-16T10:44:15;37.93;32.93;45.83;;
66747;Laerm;53658;50.742;10.864;2023-03-16T10:46:48;38.63;32.93;51.07;;
66747;Laerm;53658;50.742;10.864;2023-03-16T10:52:12;37.79;32.93;42.65;;
66747;Laerm;53658;50.742;10.864;2023-03-16T10:54:40;37.76;33.90;40.80;;
66747;Laerm;53658;50.742;10.864;2023-03-16T10:57:25;37.94;33.44;43.58;;
66747;Laerm;53658;50.742;10.864;2023-03-16T11:02:37;37.73;32.35;40.98;;
66747;Laerm;53658;50.742;10.864;2023-03-16T11:07:38;37.74;32.35;41.22;;
66747;Laerm;53658;50.742;10.864;2023-03-16T11:10:18;37.93;30.89;43.77;;
66747;Laerm;53658;50.742;10.864;2023-03-16T11:12:49;38.00;33.44;46.71;;
66747;Laerm;53658;50.742;10.864;2023-03-16T11:15:16;38.10;33.44;41.53;;
66747;Laerm;53658;50.742;10.864;2023-03-16T11:17:48;38.07;33.44;42.65;;
66747;Laerm;53658;50.742;10.864;2023-03-16T11:20:29;38.26;32.93;45.75;;
66747;Laerm;53658;50.742;10.864;2023-03-16T11:23:00;38.03;33.44;41.89;;
66747;Laerm;53658;50.742;10.864;2023-03-16T11:25:49;38.18;33.90;41.30;;
66747;Laerm;53658;50.742;10.864;2023-03-16T11:28:35;38.25;33.90;42.98;;
66747;Laerm;53658;50.742;10.864;2023-03-16T11:34:15;38.17;33.90;40.98;;
66747;Laerm;53658;50.742;10.864;2023-03-16T11:37:09;38.73;33.90;47.65;;
66747;Laerm;53658;50.742;10.864;2023-03-16T11:39:59;40.28;32.93;59.41;;
66747;Laerm;53658;50.742;10.864;2023-03-16T11:42:37;39.12;32.35;54.19;;
66747;Laerm;53658;50.742;10.864;2023-03-16T11:58:59;37.70;33.90;42.98;;
66747;Laerm;53658;50.742;10.864;2023-03-16T12:01:39;37.60;31.68;40.53;;
66747;Laerm;53658;50.742;10.864;2023-03-16T12:04:25;40.56;32.35;56.73;;
66747;Laerm;53658;50.742;10.864;2023-03-16T12:07:39;37.67;33.44;40.98;;
66747;Laerm;53658;50.742;10.864;2023-03-16T12:09:52;37.95;33.44;43.90;;
66747;Laerm;53658;50.742;10.864;2023-03-16T12:15:44;38.33;32.93;46.66;;
66747;Laerm;53658;50.742;10.864;2023-03-16T12:18:58;37.86;32.93;44.12;;
66747;Laerm;53658;50.742;10.864;2023-03-16T12:21:38;37.82;32.93;43.04;;
66747;Laerm;53658;50.742;10.864;2023-03-16T12:24:14;37.89;33.44;41.61;;
66747;Laerm;53658;50.742;10.864;2023-03-16T12:26:41;37.88;30.89;43.63;;
66747;Laerm;53658;50.742;10.864;2023-03-16T12:35:02;37.83;30.89;43.63;;
66747;Laerm;53658;50.742;10.864;2023-03-16T12:40:08;37.77;33.44;44.23;;
66747;Laerm;53658;50.742;10.864;2023-03-16T12:42:48;37.85;32.93;42.53;;
66747;Laerm;53658;50.742;10.864;2023-03-16T12:48:18;37.80;33.44;40.62;;
66747;Laerm;53658;50.742;10.864;2023-03-16T12:50:51;38.08;33.44;44.12;;
66747;Laerm;53658;50.742;10.864;2023-03-16T12:53:27;37.78;32.93;42.41;;
66747;Laerm;53658;50.742;10.864;2023-03-16T12:55:55;37.79;32.35;42.76;;
66747;Laerm;53658;50.742;10.864;2023-03-16T12:58:24;37.75;32.93;42.16;;
66747;Laerm;53658;50.742;10.864;2023-03-16T13:00:58;37.86;33.09;46.95;;
66747;Laerm;53658;50.742;10.864;2023-03-16T13:03:25;38.06;33.55;47.74;;
66747;Laerm;53658;50.742;10.864;2023-03-16T13:05:56;38.04;30.89;43.54;;
66747;Laerm;53658;50.742;10.864;2023-03-16T13:08:25;37.98;32.35;44.15;;
66747;Laerm;53658;50.742;10.864;2023-03-16T13:11:06;37.93;32.93;43.44;;
66747;Laerm;53658;50.742;10.864;2023-03-16T13:13:46;37.98;32.93;43.34;;
66747;Laerm;53658;50.742;10.864;2023-03-16T13:16:26;37.92;32.93;44.58;;
66747;Laerm;53658;50.742;10.864;2023-03-16T13:18:53;38.20;33.90;46.20;;
66747;Laerm;53658;50.742;10.864;2023-03-16T13:21:40;38.11;33.90;42.22;;
66747;Laerm;53658;50.742;10.864;2023-03-16T13:26:49;38.11;33.90;40.89;;
66747;Laerm;53658;50.742;10.864;2023-03-16T13:29:24;38.19;33.90;40.98;;
66747;Laerm;53658;50.742;10.864;2023-03-16T13:31:51;38.21;34.69;40.98;;
66747;Laerm;53658;50.742;10.864;2023-03-16T13:34:32;38.29;34.69;46.47;;
66747;Laerm;53658;50.742;10.864;2023-03-16T13:37:01;38.15;34.31;40.89;;
66747;Laerm;53658;50.742;10.864;2023-03-16T13:39:29;38.21;34.69;41.14;;
66747;Laerm;53658;50.742;10.864;2023-03-16T13:42:17;38.24;34.69;40.98;;
66747;Laerm;53658;50.742;10.864;2023-03-16T13:44:44;38.31;34.31;43.24;;
66747;Laerm;53658;50.742;10.864;2023-03-16T13:47:17;38.31;34.31;44.15;;
66747;Laerm;53658;50.742;10.864;2023-03-16T13:50:04;38.24;33.44;42.53;;
66747;Laerm;53658;50.742;10.864;2023-03-16T13:52:33;38.50;33.44;42.82;;
66747;Laerm;53658;50.742;10.864;2023-03-16T13:55:04;38.35;34.31;41.89;;
66747;Laerm;53658;50.742;10.864;2023-03-16T13:57:36;38.39;33.90;41.38;;
66747;Laerm;53658;50.742;10.864;2023-03-16T14:00:14;38.63;33.90;43.14;;
66747;Laerm;53658;50.742;10.864;2023-03-16T14:02:42;38.47;33.97;42.53;;
66747;Laerm;53658;50.742;10.864;2023-03-16T14:05:15;38.49;34.31;41.14;;
66747;Laerm;53658;50.742;10.864;2023-03-16T14:07:48;38.53;35.04;43.68;;
66747;Laerm;53658;50.742;10.864;2023-03-16T14:10:16;38.52;34.69;41.22;;
66747;Laerm;53658;50.742;10.864;2023-03-16T14:12:51;38.48;32.35;40.80;;
66747;Laerm;53658;50.742;10.864;2023-03-16T14:15:17;38.48;34.31;40.98;;
66747;Laerm;53658;50.742;10.864;2023-03-16T14:17:44;38.33;33.90;40.98;;
66747;Laerm;53658;50.742;10.864;2023-03-16T14:20:18;38.38;34.31;42.47;;
66747;Laerm;53658;50.742;10.864;2023-03-16T14:22:44;38.82;33.90;47.48;;
66747;Laerm;53658;50.742;10.864;2023-03-16T14:25:22;38.48;34.31;44.47;;
66747;Laerm;53658;50.742;10.864;2023-03-16T14:27:59;38.67;34.31;44.03;;
66747;Laerm;53658;50.742;10.864;2023-03-16T14:30:28;38.31;33.90;43.39;;
66747;Laerm;53658;50.742;10.864;2023-03-16T14:33:03;38.47;33.90;41.96;;
66747;Laerm;53658;50.742;10.864;2023-03-16T14:35:38;38.58;35.36;42.53;;
66747;Laerm;53658;50.742;10.864;2023-03-16T14:38:19;39.23;32.93;55.94;;
66747;Laerm;53658;50.742;10.864;2023-03-16T14:41:39;38.65;34.31;42.53;;
66747;Laerm;53658;50.742;10.864;2023-03-16T14:43:46;38.66;35.04;41.53;;
66747;Laerm;53658;50.742;10.864;2023-03-16T14:46:37;38.66;35.04;44.15;;
66747;Laerm;53658;50.742;10.864;2023-03-16T14:49:21;38.59;35.04;42.03;;
66747;Laerm;53658;50.742;10.864;2023-03-16T14:51:51;38.65;35.04;42.03;;
66747;Laerm;53658;50.742;10.864;2023-03-16T14:54:20;38.71;34.31;43.39;;
66747;Laerm;53658;50.742;10.864;2023-03-16T14:56:49;38.74;35.59;41.53;;
66747;Laerm;53658;50.742;10.864;2023-03-16T14:59:17;38.86;35.36;41.14;;